Warning: Javascript must be enabled to use all the features on this page!


Page Loading - Please Wait...

Click to hideNews Bulletins

Peak Streamflow for the Nation

USGS 11421000 YUBA R NR MARYSVILLE CA

Yuba County, California
Hydrologic Unit Code 18020125
Latitude  39°10'33", Longitude 121°31'26" NAD27
Drainage area 1,339  square miles
Gage datum -2.95 feet above NGVD29
Output formats
Table
Graph
Tab-separated file
peakfq (watstore) format
Reselect output format
Water
Year
Date Gage
Height
(feet)
Stream-
flow
(cfs)
1943 1943-01-22 70.453  
1944 1944-03-04 59.353 13,7006
1946 1945-12-29 65.783 26,0006
1947 1947-02-13 59.953 17,0006
1948 1948-04-17 60.033 19,0006
1949 1949-03-03 55.013 7,8001,6
1950 1950-02-05 70.453 31,5006
1951 1950-11-21 72.043 78,8006
1952 1952-02-02 65.483 41,3006
1953 1953-01-09 65.903 49,2006
1954 1954-03-10 61.553 40,5006
1955 1955-05-09 67.383 6,8506
1956 1955-12-23 82.50 136,0001,6
1957 1957-05-19 64.436 30,0001,6
1958 1958-02-25 78.90 48,8006
1959 1959-02-17 69.50 18,6006
1960 1960-02-08 84.65 71,2006
1961 1961-02-11 65.27 5,7406
1962 1962-02-10 77.83 48,7006
1963 1963-02-01 88.90 146,0006
1964 1964-01-21 68.07 16,3006
1965 1964-12-22 90.15 180,0006
1966 1966-01-05 64.17 7,3006
1967 1967-01-22 76.87 52,3006
1968 1968-02-20 68.69 21,2006
1969 1969-01-21 75.10 44,2006
1970 1970-01-22 84.46 106,0006
1971 1971-03-26 69.89 18,8006
1972 1971-12-25 64.43 5,1906
1973 1973-01-16 70.04 19,4006
1974 1974-04-01 77.00 49,3006
1975 1975-03-25 67.12 10,9006
1976 1975-10-27   2,9101,6
1977 1976-10-05   6731,6
1978 1978-01-06 69.83 18,7006
1979 1979-03-01 67.54 12,0006
1980 1980-01-14 75.58 46,9006
1981 1981-01-27 63.80 4,6006
1982 1981-12-20 78.45 64,9006
1983 1983-03-13 76.03 49,7006
1984 1983-12-27 74.03 38,7006
1985 1985-02-08 66.39 10,2006
1986 1986-02-19 85.92 111,0006
1987 1987-02-13 63.75 4,2906
1988 1988-01-16 62.59 2,8006
1989 1989-03-10 71.61 25,7006
1990 1990-01-13 63.68 4,9706
1991 1991-03-04 68.55 15,9006
1992 1992-02-15 65.69 9,1006
1993 1993-01-22 70.16 20,5006
1994 1993-12-14 61.78 2,5106
1995 1995-03-11 75.59 38,9006
1996 1996-05-18 75.98 42,7006
1997 1997-01-02 91.64 161,0006
1998 1998-02-03 72.73 28,9006
1999 1999-02-09 74.23 35,1006
2000 2000-02-14 72.03 26,2006
2001 2001-02-22 63.63 2,2306
2002 2002-03-10 65.49 5,4906
2003 2003-05-09 66.62 8,3406
2004 2004-02-18 68.84 15,2006
2005 2005-05-19 77.81 53,0006
2006 2005-12-31 86.60 114,0006
2007 2007-02-11 67.95 13,2006
2008 2008-02-25 64.48 4,8806
2009 2009-05-05 70.26 20,0006
2010 2010-06-06 65.99 6,7806
2011 2011-03-16 73.62 31,0006
2012 2012-03-17 73.97 32,7006
2013 2012-12-02 76.12 35,3006
2014 2014-02-09 66.95 7,7206
2015 2014-12-12 66.69 6,9006
2016 2016-03-14 75.99 36,2006
2017 2017-01-09 85.82 87,1006
2018 2018-04-07 76.80 36,7006
2019 2019-02-14 75.12 30,0006
?
  Peak Gage-Height Qualification Codes.
?
  Peak Streamflow Qualification Codes.